Аэропорт: Пулково. Санкт-Петербург

ICAO: ULLI

METAR:
2019/03/26 13:00
ULLI 261300Z 28006MPS 9999 -SHSN SCT010 BKN021CB OVC032 M01/M03 Q1004 R88/290050 NOSIG
METAR:
2019/03/26 12:21
TAF TAF ULLI 261058Z 2612/2712 31005G10MPS 9999 BKN011 BKN025 
      TEMPO 2612/2615 1500 SHSN BKN010 BKN017CB 
      TEMPO 2615/2619 34007G12MPS 2100 -SHSN BKN010 BKN017CB 
      TEMPO 2619/2707 3100 BR BKN010 BKN017 
      BECMG 2619/2621 33003G08MPS